sensor_id;sensor_type;location;lat;lon;timestamp;pressure;altitude;pressure_sealevel;temperature;humidity
55576;BME280;41437;45.478;9.116;2023-02-10T00:01:27;101794.25;;;-0.91;65.56
55576;BME280;41437;45.478;9.116;2023-02-10T00:04:28;101797.06;;;-0.92;64.93
55576;BME280;41437;45.478;9.116;2023-02-10T00:07:31;101791.38;;;-0.89;65.83
55576;BME280;41437;45.478;9.116;2023-02-10T00:10:33;101788.25;;;-0.85;66.38
55576;BME280;41437;45.478;9.116;2023-02-10T00:13:36;101791.97;;;-0.86;67.15
55576;BME280;41437;45.478;9.116;2023-02-10T00:16:38;101793.25;;;-0.80;66.87
55576;BME280;41437;45.478;9.116;2023-02-10T00:19:39;101789.38;;;-0.87;66.56
55576;BME280;41437;45.478;9.116;2023-02-10T00:22:42;101784.28;;;-0.81;65.78
55576;BME280;41437;45.478;9.116;2023-02-10T00:25:44;101789.09;;;-0.84;66.37
55576;BME280;41437;45.478;9.116;2023-02-10T00:28:45;101781.16;;;-0.86;66.81
55576;BME280;41437;45.478;9.116;2023-02-10T00:31:47;101773.97;;;-0.96;67.45
55576;BME280;41437;45.478;9.116;2023-02-10T00:34:49;101776.59;;;-0.85;66.54
55576;BME280;41437;45.478;9.116;2023-02-10T00:37:52;101773.72;;;-0.84;65.93
55576;BME280;41437;45.478;9.116;2023-02-10T00:40:53;101783.25;;;-0.89;66.13
55576;BME280;41437;45.478;9.116;2023-02-10T00:43:55;101779.69;;;-0.99;66.50
55576;BME280;41437;45.478;9.116;2023-02-10T00:46:56;101777.41;;;-1.04;67.37
55576;BME280;41437;45.478;9.116;2023-02-10T00:49:58;101770.84;;;-1.02;67.60
55576;BME280;41437;45.478;9.116;2023-02-10T00:53:01;101770.41;;;-0.97;67.48
55576;BME280;41437;45.478;9.116;2023-02-10T00:56:04;101775.41;;;-1.02;67.28
55576;BME280;41437;45.478;9.116;2023-02-10T00:59:05;101776.94;;;-1.09;67.48
55576;BME280;41437;45.478;9.116;2023-02-10T01:02:07;101766.53;;;-1.14;67.51
55576;BME280;41437;45.478;9.116;2023-02-10T01:05:09;101754.31;;;-1.08;69.66
55576;BME280;41437;45.478;9.116;2023-02-10T01:08:12;101758.56;;;-1.06;68.09
55576;BME280;41437;45.478;9.116;2023-02-10T01:11:14;101759.47;;;-0.95;68.05
55576;BME280;41437;45.478;9.116;2023-02-10T01:14:17;101755.50;;;-0.91;67.56
55576;BME280;41437;45.478;9.116;2023-02-10T01:17:18;101752.06;;;-0.93;66.91
55576;BME280;41437;45.478;9.116;2023-02-10T01:20:20;101758.75;;;-0.97;66.87
55576;BME280;41437;45.478;9.116;2023-02-10T01:23:23;101766.84;;;-1.07;67.68
55576;BME280;41437;45.478;9.116;2023-02-10T01:26:25;101759.38;;;-1.24;67.83
55576;BME280;41437;45.478;9.116;2023-02-10T01:29:26;101761.69;;;-1.20;69.07
55576;BME280;41437;45.478;9.116;2023-02-10T01:32:28;101756.25;;;-1.30;71.37
55576;BME280;41437;45.478;9.116;2023-02-10T01:35:30;101748.81;;;-1.37;72.16
55576;BME280;41437;45.478;9.116;2023-02-10T01:38:33;101737.66;;;-1.44;72.10
55576;BME280;41437;45.478;9.116;2023-02-10T01:41:35;101748.03;;;-1.80;71.93
55576;BME280;41437;45.478;9.116;2023-02-10T01:48:21;101745.56;;;-2.13;72.69
55576;BME280;41437;45.478;9.116;2023-02-10T01:51:27;101746.25;;;-2.32;75.90
55576;BME280;41437;45.478;9.116;2023-02-10T01:54:36;101750.41;;;-2.28;78.41
55576;BME280;41437;45.478;9.116;2023-02-10T01:57:42;101733.44;;;-1.98;76.79
55576;BME280;41437;45.478;9.116;2023-02-10T02:00:45;101746.19;;;-1.79;75.34
55576;BME280;41437;45.478;9.116;2023-02-10T02:03:46;101739.00;;;-1.69;75.03
55576;BME280;41437;45.478;9.116;2023-02-10T02:06:48;101732.22;;;-1.54;74.00
55576;BME280;41437;45.478;9.116;2023-02-10T02:09:52;101727.16;;;-1.47;72.48
55576;BME280;41437;45.478;9.116;2023-02-10T02:12:58;101727.16;;;-1.37;72.50
55576;BME280;41437;45.478;9.116;2023-02-10T02:16:09;101727.44;;;-1.40;72.65
55576;BME280;41437;45.478;9.116;2023-02-10T02:26:29;101699.28;;;-1.78;74.68
55576;BME280;41437;45.478;9.116;2023-02-10T02:30:01;101700.75;;;-1.64;74.14
55576;BME280;41437;45.478;9.116;2023-02-10T02:33:12;101699.19;;;-1.57;73.21
55576;BME280;41437;45.478;9.116;2023-02-10T02:36:18;101690.97;;;-1.56;73.88
55576;BME280;41437;45.478;9.116;2023-02-10T02:39:22;101689.97;;;-1.55;73.68
55576;BME280;41437;45.478;9.116;2023-02-10T02:42:25;101685.84;;;-1.59;73.07
55576;BME280;41437;45.478;9.116;2023-02-10T02:45:31;101693.53;;;-1.54;73.87
55576;BME280;41437;45.478;9.116;2023-02-10T02:48:53;101680.44;;;-1.59;73.61
55576;BME280;41437;45.478;9.116;2023-02-10T02:52:03;101680.41;;;-1.68;74.10
55576;BME280;41437;45.478;9.116;2023-02-10T02:55:12;101692.94;;;-1.88;73.10
55576;BME280;41437;45.478;9.116;2023-02-10T02:58:18;101681.66;;;-2.24;74.52
55576;BME280;41437;45.478;9.116;2023-02-10T03:01:24;101681.41;;;-2.42;78.12
55576;BME280;41437;45.478;9.116;2023-02-10T03:04:31;101691.47;;;-2.44;78.94
55576;BME280;41437;45.478;9.116;2023-02-10T03:07:33;101687.22;;;-2.46;79.11
55576;BME280;41437;45.478;9.116;2023-02-10T03:10:35;101697.00;;;-2.45;78.21
55576;BME280;41437;45.478;9.116;2023-02-10T03:13:37;101679.69;;;-2.64;80.24
55576;BME280;41437;45.478;9.116;2023-02-10T03:16:38;101664.28;;;-2.73;82.13
55576;BME280;41437;45.478;9.116;2023-02-10T03:19:41;101666.53;;;-2.78;82.31
55576;BME280;41437;45.478;9.116;2023-02-10T03:22:43;101669.53;;;-2.71;82.64
55576;BME280;41437;45.478;9.116;2023-02-10T03:25:45;101669.03;;;-2.97;83.08
55576;BME280;41437;45.478;9.116;2023-02-10T03:28:46;101665.63;;;-2.99;83.56
55576;BME280;41437;45.478;9.116;2023-02-10T03:31:48;101652.22;;;-2.90;84.30
55576;BME280;41437;45.478;9.116;2023-02-10T03:34:51;101662.66;;;-2.43;82.68
55576;BME280;41437;45.478;9.116;2023-02-10T03:37:53;101645.38;;;-2.31;80.16
55576;BME280;41437;45.478;9.116;2023-02-10T03:40:54;101657.50;;;-2.05;78.69
55576;BME280;41437;45.478;9.116;2023-02-10T03:43:56;101657.50;;;-2.05;77.92
55576;BME280;41437;45.478;9.116;2023-02-10T03:46:58;101669.19;;;-1.94;77.30
55576;BME280;41437;45.478;9.116;2023-02-10T03:50:01;101650.81;;;-2.00;77.63
55576;BME280;41437;45.478;9.116;2023-02-10T03:53:03;101638.09;;;-2.10;77.83
55576;BME280;41437;45.478;9.116;2023-02-10T03:56:05;101652.34;;;-2.08;77.68
55576;BME280;41437;45.478;9.116;2023-02-10T03:59:06;101663.25;;;-2.09;77.95
55576;BME280;41437;45.478;9.116;2023-02-10T04:02:08;101672.25;;;-2.09;78.61
55576;BME280;41437;45.478;9.116;2023-02-10T04:05:11;101656.81;;;-2.18;77.82
55576;BME280;41437;45.478;9.116;2023-02-10T04:08:13;101678.63;;;-2.10;78.75
55576;BME280;41437;45.478;9.116;2023-02-10T04:11:15;101668.56;;;-2.08;79.26
55576;BME280;41437;45.478;9.116;2023-02-10T04:14:16;101652.00;;;-2.14;78.77
55576;BME280;41437;45.478;9.116;2023-02-10T04:17:18;101656.91;;;-2.29;77.95
55576;BME280;41437;45.478;9.116;2023-02-10T04:20:21;101648.88;;;-2.40;78.14
55576;BME280;41437;45.478;9.116;2023-02-10T04:23:22;101652.63;;;-2.32;79.77
55576;BME280;41437;45.478;9.116;2023-02-10T04:26:24;101660.00;;;-2.34;79.81
55576;BME280;41437;45.478;9.116;2023-02-10T04:29:26;101652.03;;;-2.35;78.71
55576;BME280;41437;45.478;9.116;2023-02-10T04:32:27;101672.47;;;-2.21;78.77
55576;BME280;41437;45.478;9.116;2023-02-10T04:35:30;101671.31;;;-2.19;80.45
55576;BME280;41437;45.478;9.116;2023-02-10T04:38:32;101663.88;;;-2.27;82.28
55576;BME280;41437;45.478;9.116;2023-02-10T04:41:33;101673.31;;;-2.21;81.94
55576;BME280;41437;45.478;9.116;2023-02-10T04:44:35;101675.88;;;-2.19;81.02
55576;BME280;41437;45.478;9.116;2023-02-10T04:47:37;101678.13;;;-2.24;79.94
55576;BME280;41437;45.478;9.116;2023-02-10T04:50:40;101662.81;;;-2.35;80.51
55576;BME280;41437;45.478;9.116;2023-02-10T04:53:42;101649.41;;;-2.46;81.16
55576;BME280;41437;45.478;9.116;2023-02-10T04:56:44;101679.16;;;-2.37;81.76
55576;BME280;41437;45.478;9.116;2023-02-10T04:59:46;101680.03;;;-2.36;82.13
55576;BME280;41437;45.478;9.116;2023-02-10T05:02:47;101691.63;;;-2.45;81.42
55576;BME280;41437;45.478;9.116;2023-02-10T05:05:50;101690.03;;;-2.69;82.19
55576;BME280;41437;45.478;9.116;2023-02-10T05:08:52;101693.00;;;-2.83;83.55
55576;BME280;41437;45.478;9.116;2023-02-10T05:11:54;101674.13;;;-2.83;84.15
55576;BME280;41437;45.478;9.116;2023-02-10T05:14:55;101686.59;;;-2.71;84.84
55576;BME280;41437;45.478;9.116;2023-02-10T05:17:57;101686.94;;;-2.64;83.82
55576;BME280;41437;45.478;9.116;2023-02-10T05:21:01;101683.69;;;-2.58;83.18
55576;BME280;41437;45.478;9.116;2023-02-10T05:24:03;101676.91;;;-2.53;83.59
55576;BME280;41437;45.478;9.116;2023-02-10T05:27:04;101671.59;;;-2.64;83.30
55576;BME280;41437;45.478;9.116;2023-02-10T05:30:07;101682.13;;;-2.61;84.00
55576;BME280;41437;45.478;9.116;2023-02-10T05:33:09;101688.31;;;-2.49;83.46
55576;BME280;41437;45.478;9.116;2023-02-10T05:36:12;101691.34;;;-2.42;83.20
55576;BME280;41437;45.478;9.116;2023-02-10T05:39:14;101691.63;;;-2.45;82.28
55576;BME280;41437;45.478;9.116;2023-02-10T05:42:24;101695.41;;;-2.69;82.80
55576;BME280;41437;45.478;9.116;2023-02-10T05:45:26;101701.41;;;-2.97;83.09
55576;BME280;41437;45.478;9.116;2023-02-10T05:48:27;101704.72;;;-3.05;85.06
55576;BME280;41437;45.478;9.116;2023-02-10T05:51:30;101702.91;;;-3.05;85.30
55576;BME280;41437;45.478;9.116;2023-02-10T05:54:32;101696.00;;;-2.97;85.80
55576;BME280;41437;45.478;9.116;2023-02-10T05:57:33;101697.94;;;-2.88;85.55
55576;BME280;41437;45.478;9.116;2023-02-10T06:00:35;101704.53;;;-2.81;82.34
55576;BME280;41437;45.478;9.116;2023-02-10T06:03:36;101722.28;;;-3.11;84.10
55576;BME280;41437;45.478;9.116;2023-02-10T06:06:39;101720.00;;;-3.38;87.84
55576;BME280;41437;45.478;9.116;2023-02-10T06:09:41;101706.28;;;-3.35;88.56
55576;BME280;41437;45.478;9.116;2023-02-10T06:12:43;101723.75;;;-3.07;87.84
55576;BME280;41437;45.478;9.116;2023-02-10T06:15:45;101710.00;;;-3.04;86.96
55576;BME280;41437;45.478;9.116;2023-02-10T06:18:46;101711.34;;;-2.98;86.48
55576;BME280;41437;45.478;9.116;2023-02-10T06:21:49;101721.13;;;-2.97;86.62
55576;BME280;41437;45.478;9.116;2023-02-10T06:24:51;101723.44;;;-2.92;87.08
55576;BME280;41437;45.478;9.116;2023-02-10T06:27:52;101754.41;;;-2.75;86.11
55576;BME280;41437;45.478;9.116;2023-02-10T06:30:55;101757.25;;;-2.77;86.27
55576;BME280;41437;45.478;9.116;2023-02-10T06:33:56;101746.38;;;-2.87;85.72
55576;BME280;41437;45.478;9.116;2023-02-10T06:36:59;101751.38;;;-2.82;85.79
55576;BME280;41437;45.478;9.116;2023-02-10T06:40:01;101758.34;;;-2.80;86.12
55576;BME280;41437;45.478;9.116;2023-02-10T06:43:03;101748.69;;;-2.82;86.10
55576;BME280;41437;45.478;9.116;2023-02-10T06:46:04;101748.56;;;-2.81;86.71
55576;BME280;41437;45.478;9.116;2023-02-10T06:49:07;101768.91;;;-2.76;87.20
55576;BME280;41437;45.478;9.116;2023-02-10T06:52:10;101756.25;;;-2.76;87.10
55576;BME280;41437;45.478;9.116;2023-02-10T06:55:15;101779.84;;;-2.57;87.09
55576;BME280;41437;45.478;9.116;2023-02-10T06:58:16;101772.69;;;-2.68;86.91
55576;BME280;41437;45.478;9.116;2023-02-10T07:01:18;101781.97;;;-2.61;87.08
55576;BME280;41437;45.478;9.116;2023-02-10T07:04:19;101782.44;;;-2.56;86.97
55576;BME280;41437;45.478;9.116;2023-02-10T07:07:22;101794.19;;;-2.45;86.31
55576;BME280;41437;45.478;9.116;2023-02-10T07:10:24;101790.00;;;-2.38;85.65
55576;BME280;41437;45.478;9.116;2023-02-10T07:13:26;101772.09;;;-2.39;85.86
55576;BME280;41437;45.478;9.116;2023-02-10T07:16:27;101789.59;;;-2.34;86.19
55576;BME280;41437;45.478;9.116;2023-02-10T07:19:30;101768.00;;;-2.34;85.24
55576;BME280;41437;45.478;9.116;2023-02-10T07:22:33;101786.25;;;-2.26;85.09
55576;BME280;41437;45.478;9.116;2023-02-10T07:25:35;101767.88;;;-2.32;86.13
55576;BME280;41437;45.478;9.116;2023-02-10T07:28:36;101775.38;;;-2.15;85.81
55576;BME280;41437;45.478;9.116;2023-02-10T07:31:38;101794.75;;;-2.10;85.05
55576;BME280;41437;45.478;9.116;2023-02-10T07:34:40;101807.22;;;-1.97;85.71
55576;BME280;41437;45.478;9.116;2023-02-10T07:37:43;101808.28;;;-1.89;85.59
55576;BME280;41437;45.478;9.116;2023-02-10T07:40:45;101812.28;;;-1.83;84.40
55576;BME280;41437;45.478;9.116;2023-02-10T07:43:47;101806.13;;;-1.74;83.31
55576;BME280;41437;45.478;9.116;2023-02-10T07:46:50;101806.97;;;-1.73;83.75
55576;BME280;41437;45.478;9.116;2023-02-10T07:49:52;101802.72;;;-1.66;84.13
55576;BME280;41437;45.478;9.116;2023-02-10T07:52:55;101831.84;;;-1.49;83.42
55576;BME280;41437;45.478;9.116;2023-02-10T07:55:57;101838.00;;;-1.47;83.12
55576;BME280;41437;45.478;9.116;2023-02-10T07:58:59;101825.59;;;-1.49;82.81
55576;BME280;41437;45.478;9.116;2023-02-10T08:02:00;101830.38;;;-1.32;83.95
55576;BME280;41437;45.478;9.116;2023-02-10T08:05:02;101832.72;;;-1.18;84.01
55576;BME280;41437;45.478;9.116;2023-02-10T08:08:05;101830.47;;;-1.13;81.91
55576;BME280;41437;45.478;9.116;2023-02-10T08:11:07;101835.38;;;-1.28;84.15
55576;BME280;41437;45.478;9.116;2023-02-10T08:14:08;101842.59;;;-1.07;83.07
55576;BME280;41437;45.478;9.116;2023-02-10T08:17:10;101833.19;;;-1.13;82.07
55576;BME280;41437;45.478;9.116;2023-02-10T08:20:11;101829.97;;;-1.28;83.17
55576;BME280;41437;45.478;9.116;2023-02-10T08:23:16;101828.53;;;-1.32;82.25
55576;BME280;41437;45.478;9.116;2023-02-10T08:26:18;101838.00;;;-1.16;82.28
55576;BME280;41437;45.478;9.116;2023-02-10T08:29:20;101832.94;;;-1.00;82.15
55576;BME280;41437;45.478;9.116;2023-02-10T08:32:22;101843.72;;;-0.69;81.16
55576;BME280;41437;45.478;9.116;2023-02-10T08:35:24;101857.81;;;-0.66;79.23
55576;BME280;41437;45.478;9.116;2023-02-10T08:38:27;101850.34;;;-0.83;78.93
55576;BME280;41437;45.478;9.116;2023-02-10T08:41:28;101860.63;;;-0.87;78.62
55576;BME280;41437;45.478;9.116;2023-02-10T08:44:30;101870.19;;;-0.83;77.58
55576;BME280;41437;45.478;9.116;2023-02-10T08:47:32;101853.22;;;-0.75;77.47
55576;BME280;41437;45.478;9.116;2023-02-10T08:50:34;101861.09;;;-0.62;75.28
55576;BME280;41437;45.478;9.116;2023-02-10T08:53:37;101875.84;;;-0.45;74.47
55576;BME280;41437;45.478;9.116;2023-02-10T08:56:38;101858.75;;;-0.27;75.61
55576;BME280;41437;45.478;9.116;2023-02-10T08:59:40;101885.59;;;0.06;73.29
55576;BME280;41437;45.478;9.116;2023-02-10T09:02:41;101877.47;;;0.15;73.13
55576;BME280;41437;45.478;9.116;2023-02-10T09:05:43;101870.03;;;0.37;73.12
55576;BME280;41437;45.478;9.116;2023-02-10T09:08:47;101889.81;;;0.66;72.80
55576;BME280;41437;45.478;9.116;2023-02-10T09:11:50;101899.75;;;0.85;72.68
55576;BME280;41437;45.478;9.116;2023-02-10T09:14:51;101881.50;;;0.78;68.68
55576;BME280;41437;45.478;9.116;2023-02-10T09:17:53;101885.47;;;0.93;69.14
55576;BME280;41437;45.478;9.116;2023-02-10T09:20:56;101882.09;;;1.09;68.95
55576;BME280;41437;45.478;9.116;2023-02-10T09:23:59;101882.78;;;1.20;66.79
55576;BME280;41437;45.478;9.116;2023-02-10T09:27:01;101900.53;;;1.42;66.40
55576;BME280;41437;45.478;9.116;2023-02-10T09:30:02;101900.63;;;1.23;65.50
55576;BME280;41437;45.478;9.116;2023-02-10T09:33:04;101889.78;;;1.50;69.07
55576;BME280;41437;45.478;9.116;2023-02-10T09:36:07;101900.97;;;1.65;64.62
55576;BME280;41437;45.478;9.116;2023-02-10T09:39:10;101900.78;;;1.76;63.44
55576;BME280;41437;45.478;9.116;2023-02-10T09:42:19;101909.97;;;1.93;64.50
55576;BME280;41437;45.478;9.116;2023-02-10T09:45:25;101906.94;;;1.96;63.08
55576;BME280;41437;45.478;9.116;2023-02-10T09:48:32;101909.88;;;2.21;63.71
55576;BME280;41437;45.478;9.116;2023-02-10T09:51:43;101923.72;;;2.45;61.67
55576;BME280;41437;45.478;9.116;2023-02-10T09:54:51;101919.66;;;2.67;60.58
55576;BME280;41437;45.478;9.116;2023-02-10T09:57:55;101926.00;;;2.76;59.20
55576;BME280;41437;45.478;9.116;2023-02-10T10:01:02;101930.38;;;2.95;58.29
55576;BME280;41437;45.478;9.116;2023-02-10T10:04:08;101933.72;;;3.07;58.09
55576;BME280;41437;45.478;9.116;2023-02-10T10:07:19;101931.41;;;2.94;56.54
55576;BME280;41437;45.478;9.116;2023-02-10T10:10:28;101933.16;;;3.29;58.63
55576;BME280;41437;45.478;9.116;2023-02-10T10:13:34;101928.78;;;3.36;57.76
55576;BME280;41437;45.478;9.116;2023-02-10T10:16:48;101934.19;;;3.62;54.03
55576;BME280;41437;45.478;9.116;2023-02-10T10:20:19;101938.38;;;3.48;53.49
55576;BME280;41437;45.478;9.116;2023-02-10T10:23:33;101940.75;;;3.51;53.01
55576;BME280;41437;45.478;9.116;2023-02-10T10:26:48;101939.06;;;3.50;55.21
55576;BME280;41437;45.478;9.116;2023-02-10T10:29:54;101944.97;;;3.80;53.98
55576;BME280;41437;45.478;9.116;2023-02-10T10:33:00;101945.72;;;4.07;52.44
55576;BME280;41437;45.478;9.116;2023-02-10T10:36:04;101937.75;;;4.29;50.15
55576;BME280;41437;45.478;9.116;2023-02-10T10:39:11;101935.84;;;4.22;49.37
55576;BME280;41437;45.478;9.116;2023-02-10T10:42:22;101933.00;;;4.40;48.63
55576;BME280;41437;45.478;9.116;2023-02-10T10:45:27;101925.81;;;4.39;49.32
55576;BME280;41437;45.478;9.116;2023-02-10T10:48:30;101921.94;;;4.58;49.62
55576;BME280;41437;45.478;9.116;2023-02-10T10:51:32;101929.25;;;4.73;49.30
55576;BME280;41437;45.478;9.116;2023-02-10T10:54:35;101923.59;;;4.83;48.28
55576;BME280;41437;45.478;9.116;2023-02-10T10:57:39;101929.91;;;4.92;45.84
55576;BME280;41437;45.478;9.116;2023-02-10T11:00:49;101915.75;;;4.88;45.26
55576;BME280;41437;45.478;9.116;2023-02-10T11:04:02;101927.34;;;4.98;45.40
55576;BME280;41437;45.478;9.116;2023-02-10T11:07:09;101926.13;;;5.09;46.02
55576;BME280;41437;45.478;9.116;2023-02-10T11:10:20;101922.53;;;5.09;44.89
55576;BME280;41437;45.478;9.116;2023-02-10T11:13:27;101917.75;;;5.19;45.29
55576;BME280;41437;45.478;9.116;2023-02-10T11:16:40;101912.94;;;5.29;45.05
55576;BME280;41437;45.478;9.116;2023-02-10T11:19:53;101913.97;;;5.28;44.33
55576;BME280;41437;45.478;9.116;2023-02-10T11:22:57;101915.63;;;5.45;45.04
55576;BME280;41437;45.478;9.116;2023-02-10T11:26:01;101905.63;;;5.61;46.04
55576;BME280;41437;45.478;9.116;2023-02-10T11:29:09;101912.09;;;5.68;43.11
55576;BME280;41437;45.478;9.116;2023-02-10T11:32:18;101905.91;;;5.74;44.70
55576;BME280;41437;45.478;9.116;2023-02-10T11:35:20;101893.72;;;5.85;42.69
55576;BME280;41437;45.478;9.116;2023-02-10T11:38:25;101897.91;;;6.03;42.94
55576;BME280;41437;45.478;9.116;2023-02-10T11:41:29;101900.34;;;5.90;42.02
55576;BME280;41437;45.478;9.116;2023-02-10T11:44:32;101894.72;;;5.92;42.70
55576;BME280;41437;45.478;9.116;2023-02-10T11:47:34;101891.81;;;5.93;41.48
55576;BME280;41437;45.478;9.116;2023-02-10T11:50:36;101885.97;;;5.96;42.99
55576;BME280;41437;45.478;9.116;2023-02-10T11:53:39;101882.22;;;5.97;42.91
55576;BME280;41437;45.478;9.116;2023-02-10T11:56:46;101877.34;;;6.08;41.97
55576;BME280;41437;45.478;9.116;2023-02-10T12:00:18;101884.78;;;6.22;41.68
55576;BME280;41437;45.478;9.116;2023-02-10T12:03:33;101876.00;;;6.03;41.12
55576;BME280;41437;45.478;9.116;2023-02-10T12:06:40;101881.09;;;6.15;41.32
55576;BME280;41437;45.478;9.116;2023-02-10T12:09:46;101868.97;;;6.32;40.43
55576;BME280;41437;45.478;9.116;2023-02-10T12:12:56;101873.06;;;6.36;38.78
55576;BME280;41437;45.478;9.116;2023-02-10T12:16:12;101859.78;;;6.25;39.39
55576;BME280;41437;45.478;9.116;2023-02-10T12:19:22;101873.88;;;5.83;40.27
55576;BME280;41437;45.478;9.116;2023-02-10T12:22:32;101862.94;;;6.14;40.80
55576;BME280;41437;45.478;9.116;2023-02-10T12:25:40;101859.75;;;6.48;42.47
55576;BME280;41437;45.478;9.116;2023-02-10T12:28:56;101859.75;;;6.71;40.26
55576;BME280;41437;45.478;9.116;2023-02-10T12:32:08;101855.38;;;6.76;39.03
55576;BME280;41437;45.478;9.116;2023-02-10T12:35:35;101852.31;;;6.57;38.30
55576;BME280;41437;45.478;9.116;2023-02-10T12:38:53;101851.47;;;6.56;38.73
55576;BME280;41437;45.478;9.116;2023-02-10T12:42:04;101840.16;;;6.59;38.67
55576;BME280;41437;45.478;9.116;2023-02-10T12:45:17;101847.69;;;6.57;36.73
55576;BME280;41437;45.478;9.116;2023-02-10T12:48:29;101829.81;;;6.32;36.21
55576;BME280;41437;45.478;9.116;2023-02-10T12:51:43;101824.13;;;6.33;36.56
55576;BME280;41437;45.478;9.116;2023-02-10T12:54:50;101817.91;;;6.39;35.76
55576;BME280;41437;45.478;9.116;2023-02-10T12:57:56;101813.41;;;6.46;35.84
55576;BME280;41437;45.478;9.116;2023-02-10T13:01:08;101818.78;;;6.17;35.33
55576;BME280;41437;45.478;9.116;2023-02-10T13:04:19;101817.41;;;6.59;35.23
55576;BME280;41437;45.478;9.116;2023-02-10T13:07:29;101809.59;;;6.33;35.57
55576;BME280;41437;45.478;9.116;2023-02-10T13:10:37;101810.84;;;6.45;35.47
55576;BME280;41437;45.478;9.116;2023-02-10T13:13:41;101808.06;;;6.68;35.70
55576;BME280;41437;45.478;9.116;2023-02-10T13:16:50;101792.56;;;6.90;34.90
55576;BME280;41437;45.478;9.116;2023-02-10T13:19:59;101802.03;;;7.02;34.75
55576;BME280;41437;45.478;9.116;2023-02-10T13:23:17;101793.88;;;7.09;35.32
55576;BME280;41437;45.478;9.116;2023-02-10T13:29:47;101779.78;;;7.12;34.55
55576;BME280;41437;45.478;9.116;2023-02-10T13:32:59;101783.00;;;7.15;34.77
55576;BME280;41437;45.478;9.116;2023-02-10T13:36:10;101780.75;;;7.19;34.76
55576;BME280;41437;45.478;9.116;2023-02-10T13:39:17;101773.44;;;7.26;34.70
55576;BME280;41437;45.478;9.116;2023-02-10T13:42:25;101780.13;;;7.38;33.87
55576;BME280;41437;45.478;9.116;2023-02-10T13:45:30;101768.31;;;7.38;33.52
55576;BME280;41437;45.478;9.116;2023-02-10T13:48:34;101762.34;;;7.34;32.95
55576;BME280;41437;45.478;9.116;2023-02-10T13:51:38;101773.69;;;7.31;32.04
55576;BME280;41437;45.478;9.116;2023-02-10T13:54:40;101768.63;;;7.28;33.28
55576;BME280;41437;45.478;9.116;2023-02-10T13:57:53;101775.59;;;7.30;32.17
55576;BME280;41437;45.478;9.116;2023-02-10T14:00:56;101767.03;;;7.04;31.71
55576;BME280;41437;45.478;9.116;2023-02-10T14:03:57;101768.94;;;7.18;32.33
55576;BME280;41437;45.478;9.116;2023-02-10T14:07:00;101768.94;;;7.03;32.57
55576;BME280;41437;45.478;9.116;2023-02-10T14:13:27;101765.81;;;6.92;32.20
55576;BME280;41437;45.478;9.116;2023-02-10T14:16:36;101759.56;;;6.83;32.38
55576;BME280;41437;45.478;9.116;2023-02-10T14:19:39;101762.41;;;7.04;32.74
55576;BME280;41437;45.478;9.116;2023-02-10T14:22:42;101759.47;;;6.91;31.17
55576;BME280;41437;45.478;9.116;2023-02-10T14:25:46;101758.28;;;6.94;31.11
55576;BME280;41437;45.478;9.116;2023-02-10T14:28:48;101753.19;;;6.76;31.78
55576;BME280;41437;45.478;9.116;2023-02-10T14:31:52;101750.16;;;6.71;32.03
55576;BME280;41437;45.478;9.116;2023-02-10T14:34:58;101743.63;;;6.72;32.20
55576;BME280;41437;45.478;9.116;2023-02-10T14:38:02;101744.13;;;6.75;32.36
55576;BME280;41437;45.478;9.116;2023-02-10T14:41:04;101735.59;;;6.85;32.62
55576;BME280;41437;45.478;9.116;2023-02-10T14:44:06;101742.56;;;7.02;32.12
55576;BME280;41437;45.478;9.116;2023-02-10T14:47:16;101747.69;;;7.05;32.45
55576;BME280;41437;45.478;9.116;2023-02-10T14:50:23;101745.97;;;7.04;31.65
55576;BME280;41437;45.478;9.116;2023-02-10T14:53:27;101747.53;;;7.14;31.75
55576;BME280;41437;45.478;9.116;2023-02-10T14:56:29;101738.63;;;7.26;31.55
55576;BME280;41437;45.478;9.116;2023-02-10T14:59:31;101746.38;;;7.01;31.66
55576;BME280;41437;45.478;9.116;2023-02-10T15:02:33;101735.03;;;6.90;31.24
55576;BME280;41437;45.478;9.116;2023-02-10T15:05:37;101730.50;;;6.82;31.66
55576;BME280;41437;45.478;9.116;2023-02-10T15:08:43;101727.66;;;6.90;31.14
55576;BME280;41437;45.478;9.116;2023-02-10T15:11:48;101720.94;;;6.93;31.62
55576;BME280;41437;45.478;9.116;2023-02-10T15:15:22;101734.63;;;7.08;31.70
55576;BME280;41437;45.478;9.116;2023-02-10T15:18:29;101723.66;;;7.08;31.77
55576;BME280;41437;45.478;9.116;2023-02-10T15:21:33;101734.41;;;7.09;32.02
55576;BME280;41437;45.478;9.116;2023-02-10T15:24:36;101729.97;;;7.23;31.36
55576;BME280;41437;45.478;9.116;2023-02-10T15:27:38;101724.50;;;7.08;32.36
55576;BME280;41437;45.478;9.116;2023-02-10T15:30:43;101737.63;;;7.13;31.28
55576;BME280;41437;45.478;9.116;2023-02-10T15:33:51;101734.78;;;7.21;30.44
55576;BME280;41437;45.478;9.116;2023-02-10T15:36:57;101737.25;;;7.16;30.65
55576;BME280;41437;45.478;9.116;2023-02-10T15:40:01;101731.19;;;7.20;30.60
55576;BME280;41437;45.478;9.116;2023-02-10T15:43:05;101730.56;;;7.03;32.18
55576;BME280;41437;45.478;9.116;2023-02-10T15:46:23;101733.03;;;6.98;32.12
55576;BME280;41437;45.478;9.116;2023-02-10T15:49:25;101730.31;;;6.84;33.06
55576;BME280;41437;45.478;9.116;2023-02-10T15:52:29;101731.81;;;6.86;32.39
55576;BME280;41437;45.478;9.116;2023-02-10T15:55:34;101729.09;;;6.71;34.21
55576;BME280;41437;45.478;9.116;2023-02-10T15:58:37;101721.59;;;6.65;32.29
55576;BME280;41437;45.478;9.116;2023-02-10T16:01:39;101728.53;;;6.76;32.39
55576;BME280;41437;45.478;9.116;2023-02-10T16:04:40;101718.97;;;6.72;32.31
55576;BME280;41437;45.478;9.116;2023-02-10T16:07:43;101729.81;;;6.65;31.52
55576;BME280;41437;45.478;9.116;2023-02-10T16:10:47;101721.53;;;6.59;32.10
55576;BME280;41437;45.478;9.116;2023-02-10T16:13:48;101724.75;;;6.62;31.92
55576;BME280;41437;45.478;9.116;2023-02-10T16:16:54;101725.13;;;6.59;32.90
55576;BME280;41437;45.478;9.116;2023-02-10T16:19:56;101722.75;;;6.56;32.22
55576;BME280;41437;45.478;9.116;2023-02-10T16:22:59;101724.06;;;6.45;32.34
55576;BME280;41437;45.478;9.116;2023-02-10T16:26:02;101725.63;;;6.10;32.33
55576;BME280;41437;45.478;9.116;2023-02-10T16:29:04;101724.53;;;5.96;35.37